Nearby METAR Reports

 

GCLP - Las Palmas/Gando, Spain
Distance from station: NE 26km
Updated: 05/02/2023 10:00
Few Clouds
Few Clouds
 Wind from NNW
Wind: NNW 7 km/h
Temperature: 18°C
Dew Point: 11°C
Humidity: 64%
Barometer: 1027 hPa
Clouds: Few Clouds
Visibility: 10 km
Cloud details: Few Clouds 1067 m
2023/02/05 10:00 GCLP 051000Z 34004KT 300V030 9999 FEW035 18/11 Q1027 NOSIG
GCTS - Tenerife Sur/Rei, Spain
Distance from station: WNW 102km
Updated: 05/02/2023 10:00
Few Clouds
Few Clouds
 Wind from ENE
Wind: ENE 24 km/h
Temperature: 18°C
Dew Point: 8°C
Humidity: 52%
Barometer: 1027 hPa
Clouds: Few Clouds
Visibility: 10 km
Cloud details: Few Clouds 1067 m
2023/02/05 10:00 GCTS 051000Z 07013KT 9999 FEW035 18/08 Q1027 NOSIG
 
GCXO - Tenerife/Los Rod, Spain
Distance from station: NW 110km
Updated: 05/02/2023 10:00
Few Clouds
Few Clouds
 Wind from E
Wind: E 7 km/h
Temperature: 12°C
Dew Point: 9°C
Humidity: 82%
Barometer: 1027 hPa
Clouds: Few Clouds
Visibility: 10 km
Cloud details: Few Clouds 457 m
2023/02/05 10:00 GCXO 051000Z 10004KT 060V150 9999 FEW015 12/09 Q1027 NOSIG
GCGM - La Gomera Arpt, Spain
Distance from station: W 164km
Updated: 05/02/2023 10:00
Few Clouds
Few Clouds
 Wind from SW
Wind: SW 6 km/h
Temperature: 17°C
Dew Point: 6°C
Humidity: 49%
Barometer: 1026 hPa
Clouds: Few Clouds
Visibility: 10 km
Cloud details: Few Clouds 762 m
2023/02/05 10:00 GCGM 051000Z 23003KT 170V300 9999 FEW025 17/06 Q1026 RMK R09/25003KT 210V290 ARP/25004KT 210V290
 
GCFV - Fuerteventura Ar, Spain
Distance from station: ENE 183km
Updated: 05/02/2023 10:00
Few Clouds
Few Clouds
 Wind from ENE
Wind: ENE 13 km/h
Temperature: 18°C
Dew Point: 12°C
Humidity: 68%
Barometer: 1027 hPa
Clouds: Few Clouds
Visibility: 10 km
Cloud details: Few Clouds 610 m
2023/02/05 10:00 GCFV 051000Z 07007KT 9999 FEW020 18/12 Q1027
GCHI - Hierro Airport, Spain
Distance from station: W 226km
Updated: 05/02/2023 10:00
Partly cloudy
Partly cloudy
 Wind from ENE
Wind: ENE 17 km/h
Temperature: 19°C
Dew Point: 9°C
Humidity: 52%
Barometer: 1027 hPa
Clouds: Partly cloudy
Visibility: 10 km
Cloud details: Few Clouds 1372 m
Partly cloudy 1829 m
2023/02/05 10:00 GCHI 051000Z 06009KT 040V110 9999 FEW045 SCT060 19/09 Q1027
 
GCLA - La Palma Airport, Spain
Distance from station: WNW 233km
Updated: 05/02/2023 10:00
Drizzle, Mostly cloudy
Drizzle, Mostly cloudy
 Wind from N
Wind: N 19 km/h
Temperature: 18°C
Dew Point: 11°C
Humidity: 64%
Barometer: 1027 hPa
Summary: Drizzle
Clouds: Mostly cloudy
Visibility: 10 km
Cloud details: Few Clouds 1097 m
Partly cloudy 2134 m
Mostly cloudy 2438 m
2023/02/05 10:00 GCLA 051000Z 01010KT 340V060 9999 DZ FEW036 SCT070 BKN080 18/11 Q1027
GCRR - Arrecife/Lanzaro, Spain
Distance from station: NE 234km
Updated: 05/02/2023 10:00
Few Clouds
Few Clouds
 Wind from ENE
Wind: ENE 9 km/h
Temperature: 18°C
Dew Point: 13°C
Humidity: 73%
Barometer: 1027 hPa
Clouds: Few Clouds
Visibility: 10 km
Cloud details: Few Clouds 1219 m
2023/02/05 10:00 GCRR 051000Z 06005KT 9999 FEW040 18/13 Q1027
 
LPMA - Funchal/Madeira, Portugal
Distance from station: NNW 556km
Updated: 05/02/2023 10:00
Few Clouds
Few Clouds
 Wind from NNE
Wind: NNE 31 km/h
Temperature: 17°C
Dew Point: 9°C
Humidity: 59%
Barometer: 1030 hPa
Clouds: Few Clouds
Visibility: 10 km
Cloud details: Few Clouds 457 m
2023/02/05 10:00 LPMA 051000Z 02017KT 9999 FEW015 17/09 Q1030
LPPS - Porto Santo Isla, Portugal
Distance from station: N 594km
Updated: 05/02/2023 10:00
Few Clouds
Few Clouds
 Wind from NE
Wind: NE 20 km/h
Temperature: 17°C
Dew Point: 9°C
Humidity: 59%
Barometer: 1030 hPa
Clouds: Few Clouds
Visibility: 10 km
Cloud details: Few Clouds 457 m
2023/02/05 10:00 LPPS 051000Z 04011KT 010V070 9999 FEW015 17/09 Q1030